Swanwick, Illinois
Current Conditions -  °F | °C
As of 6:35 PM on Friday 19 Dec 2014 (Local Time) from KSAR Reporting Station
Overcast Overcast  
Wind Chill: 34°   Ceiling: 3200
Heat Index: 34°   Visibility: 10mi
Dew Point: 29°   Wind: 3mph
Humidity: 84%   Direction: 70°ENE
Pressure: 30.28"   Gusts: NA
Location:  38.1705°N, 89.5556°W
Report Text: KSAR 200035Z AUTO 07003KT 10SM OVC032 01/M01 A3028 RMK AO2 T00111014
Loading
Personal Weather Stations






























Interactive Weather Map New forecast layout! Learn more

10-Day Weather Forecast

Advertisements
Track Severe Weather on mobile